Time;durP1;ratioP1;P1;durP2;ratioP2;P2;SDS_P1;SDS_P2;PMS_P1;PMS_P2;Temp;Humidity;BMP_temperature;BMP_pressure;BME280_temperature;BME280_humidity;BME280_pressure;Samples;Min_cycle;Max_cycle;Signal;HPM_P1;HPM_P2
2022/01/02 00:00:22;;;;;;;7.72;4.13;;;;;;;11.58;78.87;101723.81;5057080;28;20407;-58
2022/01/02 00:02:53;;;;;;;8.40;4.38;;;;;;;11.61;78.69;101742.13;5055262;28;20036;-58
2022/01/02 00:05:23;;;;;;;8.30;4.03;;;;;;;11.66;78.97;101745.97;5058800;28;20616;-58
2022/01/02 00:08:02;;;;;;;6.15;3.83;;;;;;;11.70;78.47;101746.50;5062165;28;20108;-58
2022/01/02 00:10:31;;;;;;;8.95;3.95;;;;;;;11.69;78.46;101744.84;5056934;28;20071;-57
2022/01/02 00:12:58;;;;;;;9.18;4.38;;;;;;;11.66;78.91;101774.41;5053479;28;20021;-58
2022/01/02 00:15:24;;;;;;;7.75;4.20;;;;;;;11.63;78.67;101783.56;5057253;28;20017;-57
2022/01/02 00:17:51;;;;;;;9.32;4.03;;;;;;;11.64;78.48;101792.38;5056416;28;20052;-59
2022/01/02 00:20:31;;;;;;;8.63;4.18;;;;;;;11.62;78.63;101781.03;5059912;28;20020;-59
2022/01/02 00:22:58;;;;;;;10.55;4.72;;;;;;;11.61;78.65;101787.34;5060683;28;20033;-58
2022/01/02 00:25:31;;;;;;;9.65;4.75;;;;;;;11.60;78.98;101775.88;5060517;28;20362;-58
2022/01/02 00:27:58;;;;;;;8.75;4.35;;;;;;;11.58;79.16;101764.56;5054965;28;20067;-59
2022/01/02 00:30:24;;;;;;;10.75;4.60;;;;;;;11.57;79.24;101762.88;5062950;28;20039;-58
2022/01/02 00:32:51;;;;;;;8.60;4.60;;;;;;;11.57;79.49;101748.75;5059323;28;20012;-59
2022/01/02 00:35:16;;;;;;;12.45;4.78;;;;;;;11.52;79.79;101748.34;5057518;28;20446;-57
2022/01/02 00:37:41;;;;;;;11.77;4.85;;;;;;;11.45;80.09;101746.31;5061573;28;20520;-59
2022/01/02 00:40:07;;;;;;;10.18;3.85;;;;;;;11.38;80.65;101728.47;5060237;28;20020;-58
2022/01/02 00:42:37;;;;;;;8.40;4.28;;;;;;;11.32;80.96;101727.28;5061895;28;20024;-58
2022/01/02 00:45:06;;;;;;;10.23;4.40;;;;;;;11.25;81.48;101731.50;5054651;28;20024;-58
2022/01/02 00:47:59;;;;;;;11.52;4.78;;;;;;;11.20;81.76;101732.97;5057143;28;20029;-58
2022/01/02 00:50:33;;;;;;;9.75;4.70;;;;;;;11.14;82.08;101740.56;5053044;28;20032;-59
2022/01/02 00:53:02;;;;;;;9.43;4.78;;;;;;;11.10;82.38;101735.72;5053591;28;20025;-58
2022/01/02 00:55:32;;;;;;;9.75;4.50;;;;;;;11.08;82.88;101737.69;5059932;28;20484;-58
2022/01/02 00:58:03;;;;;;;12.57;5.05;;;;;;;11.06;83.06;101742.31;5059172;28;20575;-59
2022/01/02 01:00:30;;;;;;;9.85;5.07;;;;;;;11.03;83.78;101732.00;5059830;28;20388;-59
2022/01/02 01:03:05;;;;;;;12.73;4.90;;;;;;;11.01;84.10;101733.97;5060019;28;20077;-59
2022/01/02 01:05:33;;;;;;;12.77;5.35;;;;;;;10.97;84.47;101730.75;5058411;28;20542;-58
2022/01/02 01:08:01;;;;;;;9.85;5.07;;;;;;;10.95;84.45;101730.06;5056691;28;20024;-58
2022/01/02 01:10:29;;;;;;;9.95;4.75;;;;;;;10.93;85.05;101724.06;5067083;28;20030;-58
2022/01/02 01:12:57;;;;;;;11.57;4.90;;;;;;;11.02;85.06;101714.38;5052675;28;20024;-59
2022/01/02 01:15:24;;;;;;;9.98;4.63;;;;;;;10.99;85.17;101714.69;5051672;28;20495;-58
2022/01/02 01:17:55;;;;;;;10.10;4.78;;;;;;;10.94;85.57;101703.66;5056159;28;20170;-59
2022/01/02 01:20:21;;;;;;;10.60;4.88;;;;;;;10.90;86.00;101704.94;5056929;28;20024;-58
2022/01/02 01:22:46;;;;;;;10.30;4.75;;;;;;;10.91;86.06;101704.78;5054110;28;20053;-59
2022/01/02 01:25:16;;;;;;;11.60;5.13;;;;;;;10.91;86.59;101694.16;5057598;28;20060;-59
2022/01/02 01:27:42;;;;;;;11.73;5.07;;;;;;;10.90;86.77;101697.81;5054421;28;20024;-58
2022/01/02 01:30:09;;;;;;;11.40;5.60;;;;;;;10.89;86.73;101708.59;5054844;28;20476;-59
2022/01/02 01:32:35;;;;;;;10.57;5.75;;;;;;;10.85;87.04;101705.41;5057580;28;20017;-59
2022/01/02 01:35:00;;;;;;;11.10;5.22;;;;;;;10.82;87.15;101679.97;5063935;28;20035;-59
2022/01/02 01:37:25;;;;;;;14.23;5.40;;;;;;;10.79;87.54;101690.91;5062648;28;20024;-59
2022/01/02 01:39:50;;;;;;;13.35;5.18;;;;;;;10.78;87.79;101685.75;5052412;28;20532;-59
2022/01/02 01:42:26;;;;;;;13.30;5.05;;;;;;;10.77;87.80;101673.44;5055542;28;20029;-59
2022/01/02 01:45:28;;;;;;;13.55;5.50;;;;;;;10.85;88.06;101676.16;5054763;28;20756;-58
2022/01/02 01:47:37;;;;;;;12.95;5.65;;;;;;;10.89;87.73;101664.25;5057442;28;20036;-58
2022/01/02 01:50:02;;;;;;;11.57;5.40;;;;;;;10.93;88.07;101652.31;5056024;28;20396;-59
2022/01/02 01:52:28;;;;;;;13.52;5.35;;;;;;;10.95;87.88;101650.34;5055987;28;20016;-59
2022/01/02 01:54:53;;;;;;;10.52;4.85;;;;;;;10.96;88.39;101659.16;5059545;28;20028;-58
2022/01/02 01:57:18;;;;;;;11.48;5.18;;;;;;;10.97;88.54;101643.03;5061877;28;20020;-59
2022/01/02 01:59:46;;;;;;;16.30;4.90;;;;;;;10.98;88.35;101636.75;5054071;28;20021;-59
2022/01/02 02:02:13;;;;;;;12.30;5.03;;;;;;;10.98;88.35;101638.56;5056278;28;20025;-58
2022/01/02 02:04:38;;;;;;;11.30;5.05;;;;;;;10.96;88.08;101624.59;5060062;28;20012;-59
2022/01/02 02:07:04;;;;;;;9.35;4.40;;;;;;;10.95;88.44;101625.59;5056523;28;20480;-58
2022/01/02 02:09:40;;;;;;;12.75;4.55;;;;;;;10.95;88.24;101622.94;5057635;28;20031;-59
2022/01/02 02:12:06;;;;;;;11.68;5.03;;;;;;;10.96;88.57;101622.78;5060936;28;20500;-58
2022/01/02 02:14:33;;;;;;;10.95;4.50;;;;;;;11.01;88.35;101611.72;5055030;28;20025;-59
2022/01/02 02:16:58;;;;;;;14.48;4.90;;;;;;;11.09;88.44;101614.41;5055373;28;20027;-58
2022/01/02 02:19:23;;;;;;;13.90;4.72;;;;;;;11.18;88.51;101611.66;5031801;28;20028;-59
2022/01/02 02:21:49;;;;;;;17.00;5.05;;;;;;;11.27;87.98;101604.56;5054165;28;20040;-58
2022/01/02 02:24:14;;;;;;;15.55;5.25;;;;;;;11.30;86.91;101606.09;5064026;28;20036;-59
2022/01/02 02:26:39;;;;;;;14.00;4.90;;;;;;;11.32;87.41;101598.78;5056877;28;20215;-58
2022/01/02 02:29:05;;;;;;;13.75;5.03;;;;;;;11.27;87.77;101591.25;5054684;28;20407;-58
2022/01/02 02:31:30;;;;;;;12.95;4.78;;;;;;;11.24;87.49;101593.41;5059255;28;20428;-59
2022/01/02 02:33:56;;;;;;;12.32;4.63;;;;;;;11.22;87.87;101593.56;5057652;28;20476;-59
2022/01/02 02:36:21;;;;;;;15.25;4.78;;;;;;;11.20;87.90;101589.41;5060530;28;20407;-58
2022/01/02 02:38:47;;;;;;;11.10;4.60;;;;;;;11.20;88.02;101584.91;5055389;28;20063;-59
2022/01/02 02:41:12;;;;;;;12.82;4.75;;;;;;;11.20;87.99;101576.09;5060380;28;20060;-59
2022/01/02 02:43:46;;;;;;;14.43;5.03;;;;;;;11.19;87.96;101572.59;5060359;28;20036;-58
2022/01/02 02:49:00;;;;;;;9.90;4.53;;;;;;;11.22;87.89;101559.00;5051461;28;20415;-59
2022/01/02 02:51:34;;;;;;;11.43;4.20;;;;;;;11.24;87.45;101554.34;5054508;28;20490;-59
2022/01/02 02:53:59;;;;;;;12.35;4.47;;;;;;;11.24;87.34;101542.88;5052171;28;20060;-59
2022/01/02 02:56:40;;;;;;;15.95;4.97;;;;;;;11.25;87.43;101542.72;5061634;28;20056;-59
2022/01/02 02:59:06;;;;;;;11.65;4.25;;;;;;;11.28;87.55;101555.75;5055903;28;20067;-59
2022/01/02 03:01:31;;;;;;;10.13;4.63;;;;;;;11.30;87.48;101561.72;5056876;28;20447;-59
2022/01/02 03:03:57;;;;;;;13.15;4.85;;;;;;;11.30;87.32;101552.91;5054539;28;20317;-58
2022/01/02 03:06:22;;;;;;;12.98;4.30;;;;;;;11.32;87.45;101557.09;5064789;28;20059;-59
2022/01/02 03:08:49;;;;;;;10.95;4.20;;;;;;;11.32;87.10;101554.44;5059158;28;20043;-58
2022/01/02 03:11:18;;;;;;;11.77;4.13;;;;;;;11.33;87.21;101558.75;5056300;28;20062;-58
2022/01/02 03:13:45;;;;;;;7.95;4.03;;;;;;;11.35;86.96;101562.09;5065065;28;20031;-59
2022/01/02 03:16:11;;;;;;;15.40;4.82;;;;;;;11.36;86.89;101558.44;5063959;28;20540;-58
2022/01/02 03:18:37;;;;;;;13.65;4.30;;;;;;;11.38;86.68;101556.44;5058923;28;20136;-59
2022/01/02 03:21:03;;;;;;;16.45;4.68;;;;;;;11.40;87.05;101572.25;5059817;28;20039;-59
2022/01/02 03:23:29;;;;;;;13.63;3.97;;;;;;;11.48;86.66;101562.47;5064556;28;20406;-58
2022/01/02 03:25:54;;;;;;;12.45;4.28;;;;;;;11.54;87.03;101565.47;5057877;28;20025;-58
2022/01/02 03:28:20;;;;;;;12.25;4.20;;;;;;;11.56;86.81;101558.19;5052328;28;20476;-59
2022/01/02 03:30:45;;;;;;;16.95;5.03;;;;;;;11.53;86.75;101555.84;5057826;28;20482;-58
2022/01/02 03:33:11;;;;;;;13.25;4.70;;;;;;;11.44;87.09;101550.50;5064049;28;20021;-59
2022/01/02 03:35:36;;;;;;;15.48;4.50;;;;;;;11.41;86.98;101545.50;5058106;28;20032;-59
2022/01/02 03:38:03;;;;;;;14.32;4.78;;;;;;;11.34;87.07;101546.28;5065738;28;20021;-59
2022/01/02 03:40:28;;;;;;;14.38;4.60;;;;;;;11.27;87.69;101532.78;5066604;28;20025;-59
2022/01/02 03:42:54;;;;;;;13.52;4.57;;;;;;;11.26;87.58;101551.53;5059605;28;20086;-58
2022/01/02 03:45:19;;;;;;;14.07;4.90;;;;;;;11.25;88.02;101534.75;5064531;28;20480;-58
2022/01/02 03:47:45;;;;;;;15.85;4.60;;;;;;;11.26;88.11;101533.75;5060224;28;20035;-58
2022/01/02 03:50:10;;;;;;;14.07;4.68;;;;;;;11.25;87.82;101540.06;5058704;28;20116;-59
2022/01/02 03:52:36;;;;;;;11.82;4.60;;;;;;;11.23;88.06;101538.56;5066790;28;20073;-59
2022/01/02 03:55:01;;;;;;;12.82;4.60;;;;;;;11.23;88.34;101538.56;5060142;28;20472;-58
2022/01/02 03:57:26;;;;;;;11.57;4.68;;;;;;;11.21;88.53;101527.25;5063656;28;20028;-59
2022/01/02 03:59:52;;;;;;;11.60;4.65;;;;;;;11.17;88.34;101524.91;5061393;28;20480;-58
2022/01/02 04:02:17;;;;;;;17.60;5.38;;;;;;;11.12;88.43;101511.28;5057520;28;20025;-58
2022/01/02 04:04:42;;;;;;;16.45;5.03;;;;;;;11.10;88.81;101507.94;5053840;28;20107;-58
2022/01/02 04:07:08;;;;;;;12.20;4.47;;;;;;;11.06;88.82;101498.63;5067323;28;20033;-58
2022/01/02 04:09:33;;;;;;;14.57;5.22;;;;;;;11.06;88.79;101508.41;5057745;28;20028;-58
2022/01/02 04:11:58;;;;;;;14.60;5.20;;;;;;;11.03;89.22;101504.25;5054820;28;20099;-59
2022/01/02 04:14:24;;;;;;;11.20;4.80;;;;;;;11.01;89.09;101500.91;5060656;28;20052;-58
2022/01/02 04:16:49;;;;;;;11.75;4.68;;;;;;;11.00;89.17;101498.41;5063237;28;20023;-58
2022/01/02 04:19:14;;;;;;;17.40;5.22;;;;;;;11.00;89.32;101503.72;5057261;28;20046;-58
2022/01/02 04:21:39;;;;;;;14.05;4.70;;;;;;;11.00;89.69;101503.72;5061647;28;20047;-59
2022/01/02 04:24:05;;;;;;;19.52;5.20;;;;;;;10.97;90.04;101491.56;5058495;28;20197;-59
2022/01/02 04:26:30;;;;;;;11.60;4.90;;;;;;;10.96;89.63;101497.03;5057205;28;20033;-59
2022/01/02 04:28:56;;;;;;;14.45;5.28;;;;;;;10.95;90.15;101490.88;5057814;28;20039;-58
2022/01/02 04:31:22;;;;;;;15.30;4.90;;;;;;;10.94;89.92;101491.03;5062687;28;20032;-58
2022/01/02 04:33:47;;;;;;;15.57;5.22;;;;;;;10.95;90.05;101485.56;5059485;28;20021;-59
2022/01/02 04:36:12;;;;;;;14.60;5.05;;;;;;;10.97;90.41;101480.09;5060488;28;20025;-59
2022/01/02 04:38:38;;;;;;;14.02;4.93;;;;;;;10.99;90.46;101470.16;5060961;28;20056;-59
2022/01/02 04:41:04;;;;;;;11.65;4.80;;;;;;;10.99;90.04;101472.84;5060799;28;20025;-59
2022/01/02 04:43:29;;;;;;;12.07;4.78;;;;;;;10.98;90.43;101463.16;5062368;28;20389;-59
2022/01/02 04:45:56;;;;;;;19.15;5.03;;;;;;;10.99;90.12;101465.69;5064284;28;20099;-59
2022/01/02 04:48:22;;;;;;;12.70;5.00;;;;;;;10.98;90.31;101458.69;5054846;28;20090;-59
2022/01/02 04:50:47;;;;;;;11.65;5.07;;;;;;;10.99;90.13;101447.09;5058978;28;20020;-58
2022/01/02 04:53:12;;;;;;;14.02;5.10;;;;;;;11.00;90.44;101440.78;5053065;28;20464;-59
2022/01/02 04:55:38;;;;;;;14.43;5.65;;;;;;;10.99;89.99;101427.66;5056948;28;20024;-59
2022/01/02 04:58:04;;;;;;;13.57;5.05;;;;;;;10.96;90.17;101426.13;5053237;28;20389;-58
2022/01/02 05:00:29;;;;;;;13.40;4.55;;;;;;;10.91;90.27;101415.13;5052381;28;20055;-59
2022/01/02 05:02:54;;;;;;;14.48;4.88;;;;;;;10.89;90.24;101425.09;5057716;28;20444;-59
2022/01/02 05:05:20;;;;;;;12.75;4.72;;;;;;;10.87;90.32;101413.78;5052651;28;20040;-58
2022/01/02 05:07:45;;;;;;;11.95;4.28;;;;;;;10.87;90.50;101405.81;5061482;28;20024;-59
2022/01/02 05:10:11;;;;;;;14.50;4.63;;;;;;;10.87;90.47;101403.16;5057532;28;20016;-59
2022/01/02 05:12:37;;;;;;;14.15;5.18;;;;;;;10.83;90.39;101397.34;5066875;28;20385;-58
2022/01/02 05:15:04;;;;;;;13.38;4.80;;;;;;;10.83;90.61;101396.50;5060275;28;20558;-58
2022/01/02 05:17:29;;;;;;;11.02;4.60;;;;;;;10.80;90.25;101397.66;5053148;28;20036;-57
2022/01/02 05:19:54;;;;;;;12.88;4.72;;;;;;;10.78;90.33;101388.19;5056279;28;20029;-58
2022/01/02 05:22:21;;;;;;;14.65;4.63;;;;;;;10.75;90.58;101375.22;5058560;28;20374;-59
2022/01/02 05:24:46;;;;;;;12.18;4.75;;;;;;;10.72;90.89;101375.53;5063535;28;20107;-59
2022/01/02 05:27:11;;;;;;;13.23;5.22;;;;;;;10.69;90.61;101367.84;5057888;28;20038;-59
2022/01/02 05:29:36;;;;;;;15.98;4.88;;;;;;;10.69;90.66;101363.38;5055656;28;20620;-58
2022/01/02 05:32:02;;;;;;;12.93;4.85;;;;;;;10.66;90.95;101362.88;5058016;28;20044;-59
2022/01/02 05:34:28;;;;;;;15.10;4.60;;;;;;;10.67;91.05;101353.91;5056859;28;20032;-59
2022/01/02 05:36:53;;;;;;;11.60;5.00;;;;;;;10.67;90.74;101351.25;5055135;28;20117;-59
2022/01/02 05:39:19;;;;;;;10.60;4.80;;;;;;;10.68;91.11;101358.22;5060368;28;20066;-58
2022/01/02 05:41:46;;;;;;;13.82;4.90;;;;;;;10.67;91.19;101360.03;5055567;28;20036;-58
2022/01/02 05:44:12;;;;;;;13.23;4.72;;;;;;;10.67;90.97;101356.56;5056493;28;20032;-59
2022/01/02 05:46:37;;;;;;;16.35;5.13;;;;;;;10.67;90.80;101352.06;5054488;28;20033;-59
2022/01/02 05:49:02;;;;;;;12.25;4.97;;;;;;;10.68;90.86;101344.94;5061576;28;20403;-58
2022/01/02 05:51:28;;;;;;;12.18;4.70;;;;;;;10.66;91.00;101341.63;5052459;28;20112;-59
2022/01/02 05:53:53;;;;;;;9.93;4.65;;;;;;;10.63;90.94;101326.81;5056781;28;20052;-58
2022/01/02 05:56:18;;;;;;;14.43;4.65;;;;;;;10.61;90.91;101322.66;5053128;28;20043;-58
2022/01/02 05:58:44;;;;;;;13.25;4.78;;;;;;;10.62;91.02;101324.34;5049921;28;20024;-59
2022/01/02 06:01:09;;;;;;;11.40;4.35;;;;;;;10.65;90.71;101303.59;5052631;28;20472;-59
2022/01/02 06:03:34;;;;;;;8.68;4.03;;;;;;;10.68;90.60;101292.66;5054965;28;20021;-59
2022/01/02 06:06:00;;;;;;;12.10;3.92;;;;;;;10.70;90.57;101282.72;5053707;28;20040;-59
2022/01/02 06:08:25;;;;;;;11.38;4.20;;;;;;;10.73;90.04;101279.75;5053289;28;20585;-58
2022/01/02 06:10:50;;;;;;;14.10;4.38;;;;;;;10.77;89.84;101265.16;5055813;28;20145;-59
2022/01/02 06:13:15;;;;;;;10.45;4.07;;;;;;;10.77;89.96;101259.00;5062150;28;20020;-58
2022/01/02 06:15:41;;;;;;;10.15;4.22;;;;;;;10.78;89.58;101247.38;5058021;28;20033;-58
2022/01/02 06:18:06;;;;;;;9.45;4.43;;;;;;;10.80;89.44;101237.41;5055015;28;20025;-58
2022/01/02 06:20:32;;;;;;;15.27;4.45;;;;;;;10.82;89.13;101238.91;5059102;28;20020;-59
2022/01/02 06:22:57;;;;;;;16.58;4.05;;;;;;;10.88;89.13;101245.41;5050891;28;20387;-58
2022/01/02 06:25:23;;;;;;;11.00;4.25;;;;;;;10.96;88.57;101228.63;5057345;28;20543;-58
2022/01/02 06:27:49;;;;;;;12.95;3.92;;;;;;;11.04;87.99;101234.00;5056727;28;20028;-58
2022/01/02 06:30:15;;;;;;;13.43;3.90;;;;;;;11.03;87.92;101200.44;5057236;28;20107;-59
2022/01/02 06:32:40;;;;;;;10.32;4.00;;;;;;;11.02;88.06;101196.94;5051112;28;20506;-59
2022/01/02 06:35:06;;;;;;;10.23;3.97;;;;;;;11.00;87.77;101183.00;5050924;28;20037;-59
2022/01/02 06:37:31;;;;;;;9.10;3.80;;;;;;;11.01;87.59;101183.81;5052223;28;20063;-58
2022/01/02 06:39:56;;;;;;;10.60;4.00;;;;;;;11.00;87.52;101159.06;5036978;28;20036;-59
2022/01/02 06:42:22;;;;;;;12.95;3.80;;;;;;;10.98;87.58;101166.34;5057695;28;20486;-59
2022/01/02 06:44:48;;;;;;;9.45;3.90;;;;;;;10.97;87.53;101158.56;5057102;28;20028;-59
2022/01/02 06:47:14;;;;;;;12.07;4.00;;;;;;;10.93;87.80;101150.06;5062368;28;20021;-58
2022/01/02 06:49:41;;;;;;;11.07;4.22;;;;;;;10.90;87.53;101141.63;5058145;28;20488;-59
2022/01/02 06:52:06;;;;;;;7.60;3.58;;;;;;;10.86;87.48;101131.31;5059105;28;20027;-58
2022/01/02 06:54:32;;;;;;;10.52;3.75;;;;;;;10.85;87.38;101128.81;5063425;28;20111;-59
2022/01/02 06:56:57;;;;;;;7.30;4.20;;;;;;;10.84;87.04;101132.47;5057997;28;20096;-59
2022/01/02 06:59:23;;;;;;;13.82;3.95;;;;;;;10.84;87.19;101132.47;5058284;28;20027;-59
2022/01/02 07:01:48;;;;;;;8.40;3.90;;;;;;;10.82;87.21;101145.94;5062588;28;20025;-59
2022/01/02 07:04:13;;;;;;;10.00;3.67;;;;;;;10.82;86.81;101140.63;5057269;28;20048;-59
2022/01/02 07:06:39;;;;;;;7.35;3.70;;;;;;;10.83;86.90;101130.81;5054374;28;20045;-59
2022/01/02 07:09:04;;;;;;;7.32;3.50;;;;;;;10.82;86.66;101119.38;5055294;28;20074;-59
2022/01/02 07:11:30;;;;;;;10.32;3.85;;;;;;;10.80;86.97;101121.34;5061857;28;20215;-59
2022/01/02 07:13:55;;;;;;;8.95;3.80;;;;;;;10.81;86.43;101115.03;5058370;28;20033;-59
2022/01/02 07:16:20;;;;;;;12.43;3.90;;;;;;;10.80;86.45;101116.03;5061284;28;20025;-59
2022/01/02 07:18:46;;;;;;;9.07;3.50;;;;;;;10.79;86.22;101114.38;5056072;28;20128;-59
2022/01/02 07:21:11;;;;;;;10.32;3.80;;;;;;;10.81;86.33;101107.06;5061229;28;20032;-58
2022/01/02 07:23:36;;;;;;;6.88;3.38;;;;;;;10.82;85.88;101114.06;5060437;28;20028;-59
2022/01/02 07:26:01;;;;;;;6.60;3.60;;;;;;;10.83;86.06;101109.56;5056201;28;20033;-59
2022/01/02 07:28:29;;;;;;;7.10;3.40;;;;;;;10.84;85.56;101111.22;5056171;28;20029;-58
2022/01/02 07:30:55;;;;;;;9.18;3.30;;;;;;;10.88;85.21;101087.81;5054220;28;20037;-59
2022/01/02 07:33:20;;;;;;;10.95;3.45;;;;;;;10.88;85.49;101095.78;5053654;28;20429;-59
2022/01/02 07:35:45;;;;;;;7.63;3.30;;;;;;;10.91;84.83;101063.56;5054263;28;20273;-59
2022/01/02 07:38:10;;;;;;;6.75;3.67;;;;;;;10.89;84.69;101063.72;5064713;28;20222;-59
2022/01/02 07:40:36;;;;;;;6.88;3.30;;;;;;;10.88;85.00;101046.13;5061050;28;20124;-59
2022/01/02 07:43:01;;;;;;;7.93;3.40;;;;;;;10.88;84.43;101063.91;5055493;28;20388;-59
2022/01/02 07:45:26;;;;;;;9.10;3.30;;;;;;;10.90;84.26;101078.66;5068326;28;20040;-59
2022/01/02 07:47:52;;;;;;;7.68;3.67;;;;;;;10.90;84.37;101069.88;5056783;28;20064;-59
2022/01/02 07:50:18;;;;;;;6.97;3.05;;;;;;;10.89;84.12;101092.97;5065319;28;20020;-58
2022/01/02 07:52:44;;;;;;;12.57;3.60;;;;;;;10.91;84.19;101114.03;5058489;28;20041;-59
2022/01/02 07:55:09;;;;;;;8.23;3.75;;;;;;;10.77;84.53;101107.56;5058325;28;20054;-59
2022/01/02 07:57:35;;;;;;;8.73;3.63;;;;;;;10.79;84.57;101130.31;5052999;28;20465;-58
2022/01/02 08:00:01;;;;;;;5.13;2.80;;;;;;;10.79;85.01;101126.84;5056050;28;20130;-59
2022/01/02 08:02:26;;;;;;;6.15;3.17;;;;;;;10.74;85.26;101135.31;5059293;28;20090;-59
2022/01/02 08:04:51;;;;;;;11.15;3.97;;;;;;;10.73;85.04;101132.81;5054532;28;20111;-59
2022/01/02 08:07:16;;;;;;;7.47;3.38;;;;;;;10.71;85.32;101127.66;5072009;28;20020;-58
2022/01/02 08:09:42;;;;;;;14.20;3.78;;;;;;;10.71;85.28;101130.31;5062031;28;20077;-59
2022/01/02 08:12:07;;;;;;;7.05;3.60;;;;;;;10.69;85.17;101131.44;5055033;28;20555;-58
2022/01/02 08:14:32;;;;;;;8.93;3.20;;;;;;;10.70;84.97;101131.31;5064321;28;20028;-58
2022/01/02 08:16:57;;;;;;;9.27;3.47;;;;;;;10.71;85.32;101138.28;5060160;28;20051;-59
2022/01/02 08:19:23;;;;;;;9.18;3.53;;;;;;;10.72;85.33;101133.81;5056638;28;20068;-59
2022/01/02 08:21:48;;;;;;;8.05;3.83;;;;;;;10.72;85.23;101134.63;5061111;28;20094;-59
2022/01/02 08:24:13;;;;;;;6.18;3.80;;;;;;;10.75;84.79;101136.97;5061352;28;20028;-58
2022/01/02 08:26:39;;;;;;;6.80;3.30;;;;;;;10.79;84.63;101143.59;5052625;28;20075;-58
2022/01/02 08:29:04;;;;;;;5.68;3.15;;;;;;;10.82;84.65;101153.06;5052370;28;20025;-59
2022/01/02 08:31:30;;;;;;;5.18;3.15;;;;;;;10.88;84.49;101148.91;5058059;28;20099;-58
2022/01/02 08:33:56;;;;;;;8.30;3.20;;;;;;;10.89;84.18;101121.34;5055821;28;20031;-59
2022/01/02 08:36:22;;;;;;;9.90;3.53;;;;;;;10.92;83.97;101113.03;5056597;28;20111;-59
2022/01/02 08:38:48;;;;;;;7.90;3.80;;;;;;;10.89;84.49;101146.09;5057469;28;20321;-59
2022/01/02 08:41:17;;;;;;;6.90;3.58;;;;;;;10.90;83.83;101131.81;5062366;28;20258;-59
2022/01/02 08:43:42;;;;;;;11.00;3.50;;;;;;;10.92;83.53;101127.16;5055772;28;20036;-58
2022/01/02 08:46:08;;;;;;;6.78;3.42;;;;;;;10.92;83.54;101131.66;5063634;28;20074;-58
2022/01/02 08:48:34;;;;;;;7.22;3.45;;;;;;;10.88;83.48;101139.13;5057673;28;20035;-58
2022/01/02 08:50:59;;;;;;;7.10;3.63;;;;;;;10.90;83.63;101141.63;5062966;28;20033;-58
2022/01/02 08:53:27;;;;;;;5.40;3.50;;;;;;;10.92;83.21;101132.47;5057330;28;20473;-58
2022/01/02 08:55:52;;;;;;;7.72;3.42;;;;;;;10.93;82.63;101135.97;5057592;28;20396;-59
2022/01/02 08:58:19;;;;;;;6.45;3.40;;;;;;;10.93;82.86;101128.00;5063352;28;20491;-58
2022/01/02 09:00:44;;;;;;;5.22;3.47;;;;;;;10.93;82.88;101136.78;5057414;28;20433;-58
2022/01/02 09:03:09;;;;;;;7.22;3.40;;;;;;;10.96;83.04;101125.00;5061106;28;20067;-58
2022/01/02 09:05:35;;;;;;;8.50;4.05;;;;;;;10.97;82.72;101137.28;5052306;28;20480;-58
2022/01/02 09:08:00;;;;;;;8.30;4.40;;;;;;;10.99;82.45;101136.16;5061355;28;20059;-58
2022/01/02 09:10:25;;;;;;;7.72;3.90;;;;;;;11.00;82.45;101131.66;5056625;28;20028;-59
2022/01/02 09:12:50;;;;;;;6.20;3.88;;;;;;;10.98;82.56;101137.13;5061701;28;20021;-58
2022/01/02 09:15:16;;;;;;;6.05;3.97;;;;;;;11.00;82.65;101124.53;5058004;28;20036;-59
2022/01/02 09:17:41;;;;;;;5.95;4.03;;;;;;;11.01;82.56;101139.47;5053227;28;20619;-58
2022/01/02 09:20:08;;;;;;;9.65;4.40;;;;;;;11.08;82.63;101156.41;5063539;28;20032;-58
2022/01/02 09:22:34;;;;;;;6.35;4.00;;;;;;;11.14;82.79;101136.31;5056524;28;20103;-59
2022/01/02 09:25:00;;;;;;;8.75;4.22;;;;;;;11.21;82.45;101142.59;5051026;28;20362;-59
2022/01/02 09:27:25;;;;;;;8.02;4.07;;;;;;;11.24;82.27;101128.16;5056729;28;20039;-58
2022/01/02 09:29:50;;;;;;;8.57;4.30;;;;;;;11.25;82.13;101135.94;5064675;28;20099;-59
2022/01/02 09:32:16;;;;;;;8.82;4.63;;;;;;;11.26;82.68;101134.13;5062039;28;20025;-59
2022/01/02 09:34:41;;;;;;;8.27;4.68;;;;;;;11.24;82.39;101131.63;5062848;28;20035;-59
2022/01/02 09:37:07;;;;;;;9.63;4.90;;;;;;;11.24;82.66;101134.28;5061534;28;20028;-59
2022/01/02 09:39:33;;;;;;;7.80;4.18;;;;;;;11.27;82.16;101149.06;5054623;28;20485;-58
2022/01/02 09:41:58;;;;;;;6.70;4.32;;;;;;;11.27;82.23;101133.94;5055693;28;20024;-57
2022/01/02 09:44:24;;;;;;;10.32;4.85;;;;;;;11.30;82.20;101152.25;5058051;28;20031;-59
2022/01/02 09:46:52;;;;;;;8.18;5.20;;;;;;;11.31;82.31;101140.63;5063145;28;20024;-59
2022/01/02 09:49:19;;;;;;;12.33;5.67;;;;;;;11.37;81.87;101155.91;5056218;28;20096;-58
2022/01/02 09:51:45;;;;;;;8.88;5.22;;;;;;;11.43;81.64;101146.41;5052772;28;20380;-59
2022/01/02 09:54:10;;;;;;;9.25;5.28;;;;;;;11.46;81.78;101144.25;5060987;28;20510;-59
2022/01/02 09:56:36;;;;;;;10.32;4.80;;;;;;;11.53;81.46;101144.38;5060104;28;20865;-58
2022/01/02 09:59:02;;;;;;;9.65;5.18;;;;;;;11.62;81.68;101143.41;5054789;28;20016;-58
2022/01/02 10:01:29;;;;;;;11.52;5.57;;;;;;;11.81;80.93;101149.34;5055181;28;20171;-59
2022/01/02 10:03:57;;;;;;;9.60;4.93;;;;;;;11.91;80.42;101147.34;5066959;28;20089;-59
2022/01/02 10:06:40;;;;;;;10.50;5.65;;;;;;;11.93;80.10;101150.66;5062551;28;20503;-59
2022/01/02 10:09:09;;;;;;;11.13;5.22;;;;;;;11.91;79.79;101150.00;5053757;28;20054;-59
2022/01/02 10:11:35;;;;;;;12.60;5.35;;;;;;;11.88;80.03;101145.84;5061962;28;20028;-59
2022/01/02 10:14:02;;;;;;;9.43;4.90;;;;;;;11.90;79.88;101148.34;5062868;28;20031;-59
2022/01/02 10:16:32;;;;;;;9.05;5.07;;;;;;;11.91;79.76;101132.19;5060219;28;20043;-59
2022/01/02 10:19:00;;;;;;;9.95;5.35;;;;;;;11.92;79.69;101141.84;5061634;28;20314;-58
2022/01/02 10:21:34;;;;;;;11.70;5.10;;;;;;;11.91;79.59;101140.19;5056297;28;20110;-58
2022/01/02 10:24:09;;;;;;;9.45;5.10;;;;;;;11.91;79.39;101158.81;5060727;28;20051;-59
2022/01/02 10:26:35;;;;;;;8.88;5.03;;;;;;;11.89;79.49;101144.84;5051780;28;20171;-59
2022/01/02 10:29:10;;;;;;;11.30;4.65;;;;;;;11.91;79.42;101157.97;5058678;28;20115;-59
2022/01/02 10:31:35;;;;;;;9.13;4.80;;;;;;;11.90;79.61;101143.84;5062137;28;20083;-59
2022/01/02 10:34:00;;;;;;;11.90;5.20;;;;;;;11.92;79.20;101136.53;5053855;28;20546;-59
2022/01/02 10:36:33;;;;;;;11.55;5.20;;;;;;;11.93;79.49;101140.00;5053162;28;20463;-59
2022/01/02 10:38:58;;;;;;;10.30;5.00;;;;;;;11.95;79.71;101122.03;5054566;28;20029;-59
2022/01/02 10:41:45;;;;;;;11.95;5.30;;;;;;;11.97;79.66;101126.19;5053169;28;20045;-59
2022/01/02 10:44:30;;;;;;;10.00;4.60;;;;;;;11.99;79.40;101118.03;5060670;28;20059;-59
2022/01/02 10:47:17;;;;;;;14.57;4.68;;;;;;;12.00;79.89;101138.31;5045532;28;20044;-59
2022/01/02 10:50:03;;;;;;;11.00;4.82;;;;;;;11.99;79.66;101134.81;5057170;28;20424;-58
2022/01/02 10:52:33;;;;;;;13.02;5.13;;;;;;;12.04;79.76;101121.00;5050760;28;20071;-59
2022/01/02 10:55:05;;;;;;;12.60;4.68;;;;;;;12.03;79.84;101112.19;5055139;28;20032;-59
2022/01/02 10:57:33;;;;;;;11.70;4.88;;;;;;;12.06;79.25;101126.97;5057214;28;20028;-58
2022/01/02 10:59:59;;;;;;;10.07;4.72;;;;;;;12.08;79.78;101141.75;5055434;28;20025;-59
2022/01/02 11:02:26;;;;;;;7.05;4.25;;;;;;;12.07;79.73;101145.44;5052044;28;20040;-58
2022/01/02 11:05:03;;;;;;;12.25;4.50;;;;;;;12.08;79.46;101139.09;5059279;28;20028;-59
2022/01/02 11:07:37;;;;;;;11.20;4.47;;;;;;;12.09;79.43;101134.59;5054975;28;20453;-59
2022/01/02 11:10:03;;;;;;;13.73;4.53;;;;;;;12.14;79.89;101139.41;5057114;28;20035;-59
2022/01/02 11:12:28;;;;;;;9.30;4.45;;;;;;;12.18;79.88;101132.75;5061818;28;20376;-59
2022/01/02 11:14:54;;;;;;;11.35;4.70;;;;;;;12.23;79.69;101151.69;5059333;28;20090;-59
2022/01/02 11:17:19;;;;;;;9.15;4.18;;;;;;;12.24;79.56;101138.22;5056876;28;20086;-59
2022/01/02 11:19:44;;;;;;;10.43;4.57;;;;;;;12.29;79.20;101151.00;5056255;28;20496;-59